createdAt,value
2023-05-24T00:00:41.087Z,2.25
2023-05-24T00:01:40.842Z,1.39
2023-05-24T00:02:41.065Z,1.58
2023-05-24T00:03:41.321Z,1.54
2023-05-24T00:04:41.315Z,1.71
2023-05-24T00:05:41.477Z,1.57
2023-05-24T00:06:41.578Z,1.81
2023-05-24T00:07:41.718Z,2.53
2023-05-24T00:08:41.886Z,3.22
2023-05-24T00:09:41.988Z,3.33
2023-05-24T00:10:42.226Z,3.61
2023-05-24T00:11:42.237Z,3.92
2023-05-24T00:12:42.348Z,3.28
2023-05-24T00:13:42.439Z,3.87
2023-05-24T00:14:42.578Z,4.90
2023-05-24T00:15:42.720Z,5.57
2023-05-24T00:16:42.986Z,7.62
2023-05-24T00:17:43.148Z,12.22
2023-05-24T00:18:43.132Z,13.68
2023-05-24T00:19:43.272Z,14.47
2023-05-24T00:20:43.683Z,17.61
2023-05-24T00:21:43.530Z,20.86
2023-05-24T00:22:43.655Z,25.84
2023-05-24T00:23:43.832Z,32.26
2023-05-24T00:24:43.940Z,44.32
2023-05-24T00:25:44.035Z,60.94
2023-05-24T00:26:44.152Z,63.79
2023-05-24T00:27:44.248Z,68.57
2023-05-24T00:28:44.348Z,72.28
2023-05-24T00:29:44.442Z,87.61
2023-05-24T00:30:44.656Z,112.29
2023-05-24T00:31:44.739Z,121.68
2023-05-24T00:32:44.803Z,132.68
2023-05-24T00:33:44.898Z,154.86
2023-05-24T00:34:44.977Z,156.00
2023-05-24T00:35:45.070Z,160.17
2023-05-24T00:36:45.170Z,169.17
2023-05-24T00:37:45.371Z,180.52
2023-05-24T00:38:45.346Z,174.94
2023-05-24T00:39:45.421Z,192.54
2023-05-24T00:40:45.528Z,216.13
2023-05-24T00:41:45.593Z,213.42
2023-05-24T00:42:45.695Z,161.74
2023-05-24T00:43:45.767Z,155.15
2023-05-24T00:44:45.863Z,174.56
2023-05-24T00:45:46.008Z,187.35
2023-05-24T00:46:46.115Z,187.48
2023-05-24T00:47:46.254Z,169.43
2023-05-24T00:48:46.338Z,225.93
2023-05-24T00:49:46.457Z,323.86
2023-05-24T00:50:46.544Z,318.44
2023-05-24T00:51:46.679Z,205.86
2023-05-24T00:52:46.771Z,274.01
2023-05-24T00:53:46.972Z,291.50
2023-05-24T00:54:47.047Z,292.57
2023-05-24T00:55:47.248Z,248.18
2023-05-24T00:56:47.300Z,230.22
2023-05-24T00:57:47.427Z,251.54
2023-05-24T00:58:47.516Z,242.15
2023-05-24T00:59:47.721Z,282.04
2023-05-24T01:00:47.713Z,347.10
2023-05-24T01:01:47.894Z,379.33
2023-05-24T01:02:47.973Z,339.24
2023-05-24T01:03:48.077Z,367.53
2023-05-24T01:04:48.086Z,380.42
2023-05-24T01:05:48.192Z,372.78
2023-05-24T01:06:48.328Z,454.44
2023-05-24T01:07:48.533Z,539.33
2023-05-24T01:08:48.547Z,641.76
2023-05-24T01:09:48.784Z,719.15
2023-05-24T01:10:48.807Z,834.00
2023-05-24T01:11:48.946Z,861.43
2023-05-24T01:12:49.050Z,767.99
2023-05-24T01:13:49.238Z,809.55
2023-05-24T01:14:49.332Z,860.56
2023-05-24T01:15:49.496Z,883.36
2023-05-24T01:16:49.560Z,768.64
2023-05-24T01:17:49.669Z,677.76
2023-05-24T01:18:49.813Z,624.34
2023-05-24T01:19:50.064Z,631.66
2023-05-24T01:20:50.105Z,671.27
2023-05-24T01:21:50.191Z,646.86
2023-05-24T01:22:50.261Z,648.30
2023-05-24T01:23:50.339Z,655.25
2023-05-24T01:24:50.407Z,705.23
2023-05-24T01:25:50.491Z,794.32
2023-05-24T01:26:50.596Z,861.52
2023-05-24T01:27:50.654Z,876.97
2023-05-24T01:28:50.719Z,864.24
2023-05-24T01:29:50.823Z,885.40
2023-05-24T01:30:50.888Z,756.03
2023-05-24T01:31:50.987Z,781.18
2023-05-24T01:32:51.165Z,714.88
2023-05-24T01:33:51.241Z,620.98
2023-05-24T01:34:51.387Z,631.56
2023-05-24T01:35:51.536Z,635.97
2023-05-24T01:36:51.637Z,585.69
2023-05-24T01:37:51.780Z,545.92
2023-05-24T01:38:51.926Z,502.80
2023-05-24T01:39:52.000Z,504.38
2023-05-24T01:40:52.134Z,458.48
2023-05-24T01:41:52.242Z,498.98
2023-05-24T01:42:52.399Z,574.24
2023-05-24T01:43:52.544Z,602.19
2023-05-24T01:44:52.686Z,647.18
2023-05-24T01:45:52.818Z,660.75
2023-05-24T01:46:52.991Z,610.40
2023-05-24T01:47:53.110Z,720.75
2023-05-24T01:48:53.174Z,873.41
2023-05-24T01:49:53.283Z,921.98
2023-05-24T01:50:53.386Z,840.40
2023-05-24T01:51:53.574Z,889.35
2023-05-24T01:52:53.621Z,978.75
2023-05-24T01:53:53.707Z,1000.00
2023-05-24T01:54:53.783Z,1000.00
2023-05-24T01:55:53.936Z,923.87
2023-05-24T01:56:54.332Z,696.32
2023-05-24T01:57:54.964Z,717.58
2023-05-24T01:58:54.328Z,790.76
2023-05-24T01:59:54.511Z,975.09
2023-05-24T02:00:55.095Z,770.27
2023-05-24T02:01:54.728Z,573.49
2023-05-24T02:02:54.977Z,586.84
2023-05-24T02:03:54.979Z,883.39
2023-05-24T02:04:55.092Z,1000.00
2023-05-24T02:05:55.205Z,1000.00
2023-05-24T02:06:55.304Z,1000.00
2023-05-24T02:07:55.381Z,1000.00
2023-05-24T02:08:55.452Z,1000.00
2023-05-24T02:09:55.517Z,1000.00
2023-05-24T02:10:55.595Z,1000.00
2023-05-24T02:11:55.682Z,1000.00
2023-05-24T02:12:55.726Z,1000.00
2023-05-24T02:13:55.830Z,1000.00
2023-05-24T02:14:55.888Z,1000.00
2023-05-24T02:15:55.946Z,1000.00
2023-05-24T02:16:56.066Z,1000.00
2023-05-24T02:17:56.119Z,1000.00
2023-05-24T02:18:56.173Z,1000.00
2023-05-24T02:19:56.267Z,1000.00
2023-05-24T02:20:56.316Z,1000.00
2023-05-24T02:21:56.386Z,1000.00
2023-05-24T02:22:56.460Z,1000.00
2023-05-24T02:23:56.528Z,1000.00
2023-05-24T02:24:56.601Z,1000.00
2023-05-24T02:25:56.745Z,1000.00
2023-05-24T02:26:56.819Z,1000.00
2023-05-24T02:27:56.944Z,1000.00
2023-05-24T02:28:57.078Z,1000.00
2023-05-24T02:29:57.212Z,1000.00
2023-05-24T02:30:57.291Z,1000.00
2023-05-24T02:31:57.350Z,1000.00
2023-05-24T02:32:57.582Z,1000.00
2023-05-24T02:33:57.536Z,1000.00
2023-05-24T02:34:57.653Z,1000.00
2023-05-24T02:35:57.744Z,1000.00
2023-05-24T02:36:57.809Z,1000.00
2023-05-24T02:37:57.908Z,1000.00
2023-05-24T02:38:58.092Z,1000.00
2023-05-24T02:39:58.216Z,1000.00
2023-05-24T02:40:58.363Z,1000.00
2023-05-24T02:41:58.463Z,1000.00
2023-05-24T02:42:58.566Z,1000.00
2023-05-24T02:43:58.661Z,1000.00
2023-05-24T02:44:58.751Z,1000.00
2023-05-24T02:45:58.854Z,1000.00
2023-05-24T02:46:58.917Z,1000.00
2023-05-24T02:47:59.031Z,1000.00
2023-05-24T02:48:59.158Z,1000.00
2023-05-24T02:49:59.232Z,1000.00
2023-05-24T02:50:59.486Z,1000.00
2023-05-24T02:52:00.478Z,1000.00
2023-05-24T02:52:59.624Z,1000.00
2023-05-24T02:53:59.750Z,1000.00
2023-05-24T02:54:59.845Z,1000.00
2023-05-24T02:55:59.999Z,1000.00
2023-05-24T02:57:00.059Z,1000.00
2023-05-24T02:58:00.139Z,1000.00
2023-05-24T02:59:00.210Z,1000.00
2023-05-24T03:00:00.263Z,1000.00
2023-05-24T03:01:00.384Z,1000.00
2023-05-24T03:02:00.457Z,1000.00
2023-05-24T03:03:00.569Z,1000.00
2023-05-24T03:04:00.606Z,1000.00
2023-05-24T03:05:00.659Z,1000.00
2023-05-24T03:06:00.762Z,1000.00
2023-05-24T03:07:00.818Z,1000.00
2023-05-24T03:08:00.927Z,1000.00
2023-05-24T03:09:01.001Z,1000.00
2023-05-24T03:10:01.108Z,1000.00
2023-05-24T03:11:01.188Z,1000.00
2023-05-24T03:12:01.271Z,1000.00
2023-05-24T03:13:01.341Z,1000.00
2023-05-24T03:14:01.464Z,1000.00
2023-05-24T03:15:01.520Z,1000.00
2023-05-24T03:16:01.710Z,1000.00
2023-05-24T03:17:01.696Z,1000.00
2023-05-24T03:18:01.796Z,1000.00
2023-05-24T03:19:01.848Z,1000.00
2023-05-24T03:20:01.954Z,1000.00
2023-05-24T03:21:02.134Z,1000.00
2023-05-24T03:22:02.187Z,1000.00
2023-05-24T03:23:02.323Z,1000.00
2023-05-24T03:24:02.498Z,1000.00
2023-05-24T03:25:03.496Z,1000.00
2023-05-24T03:26:02.809Z,1000.00
2023-05-24T03:27:03.482Z,1000.00
2023-05-24T03:28:02.998Z,1000.00
2023-05-24T03:29:03.084Z,1000.00
2023-05-24T03:30:03.226Z,1000.00
2023-05-24T03:31:03.355Z,1000.00
2023-05-24T03:32:03.557Z,1000.00
2023-05-24T03:33:03.688Z,1000.00
2023-05-24T03:34:03.791Z,1000.00
2023-05-24T03:35:03.896Z,1000.00
2023-05-24T03:36:04.029Z,1000.00
2023-05-24T03:37:04.139Z,1000.00
2023-05-24T03:38:04.260Z,1000.00
2023-05-24T03:39:04.356Z,1000.00
2023-05-24T03:40:04.449Z,1000.00
2023-05-24T03:41:04.512Z,1000.00
2023-05-24T03:42:04.591Z,1000.00
2023-05-24T03:43:04.814Z,1000.00
2023-05-24T03:44:04.776Z,1000.00
2023-05-24T03:45:04.863Z,914.78
2023-05-24T03:46:05.047Z,1000.00
2023-05-24T03:47:05.026Z,998.25
2023-05-24T03:48:05.132Z,634.43
2023-05-24T03:49:05.218Z,654.31
2023-05-24T03:50:05.315Z,942.65
2023-05-24T03:51:05.436Z,1000.00
2023-05-24T03:52:05.594Z,955.84
2023-05-24T03:53:05.658Z,653.81
2023-05-24T03:54:05.796Z,479.96
2023-05-24T03:55:05.914Z,452.97
2023-05-24T03:56:06.102Z,370.66
2023-05-24T03:57:06.183Z,393.97
2023-05-24T03:58:06.322Z,421.69
2023-05-24T03:59:06.474Z,397.39
2023-05-24T04:00:06.557Z,248.49
2023-05-24T04:01:07.002Z,264.54
2023-05-24T04:02:06.786Z,249.98
2023-05-24T04:03:06.983Z,234.57
2023-05-24T04:04:07.105Z,264.95
2023-05-24T04:05:07.191Z,183.01
2023-05-24T04:06:07.316Z,173.64
2023-05-24T04:07:07.451Z,187.36
2023-05-24T04:08:07.579Z,122.35
2023-05-24T04:09:07.666Z,109.25
2023-05-24T04:10:07.826Z,98.30
2023-05-24T04:11:07.896Z,100.12
2023-05-24T04:12:08.026Z,104.97
2023-05-24T04:13:08.150Z,116.76
2023-05-24T04:14:08.355Z,111.12
2023-05-24T04:15:08.447Z,85.23
2023-05-24T04:16:08.544Z,96.44
2023-05-24T04:17:08.736Z,100.89
2023-05-24T04:18:08.881Z,105.37
2023-05-24T04:19:08.862Z,109.21
2023-05-24T04:20:09.055Z,123.99
2023-05-24T04:21:09.153Z,127.82
2023-05-24T04:22:09.294Z,134.37
2023-05-24T04:23:09.452Z,126.21
2023-05-24T04:24:09.549Z,125.76
2023-05-24T04:25:09.683Z,124.46
2023-05-24T04:26:09.842Z,103.70
2023-05-24T04:27:09.982Z,99.48
2023-05-24T04:28:10.124Z,94.42
2023-05-24T04:29:10.225Z,87.80
2023-05-24T04:30:10.328Z,102.96
2023-05-24T04:31:10.515Z,124.74
2023-05-24T04:32:10.636Z,131.69
2023-05-24T04:33:10.822Z,150.67
2023-05-24T04:34:10.930Z,133.38
2023-05-24T04:35:11.037Z,119.17
2023-05-24T04:36:11.187Z,87.96
2023-05-24T04:37:11.286Z,118.02
2023-05-24T04:38:11.397Z,142.14
2023-05-24T04:39:11.599Z,137.56
2023-05-24T04:40:11.698Z,124.29
2023-05-24T04:41:11.835Z,129.65
2023-05-24T04:42:12.010Z,93.21
2023-05-24T04:43:12.114Z,83.82
2023-05-24T04:44:12.255Z,96.60
2023-05-24T04:45:12.432Z,94.71
2023-05-24T04:46:12.642Z,100.11
2023-05-24T04:47:12.636Z,101.97
2023-05-24T04:48:12.704Z,109.16
2023-05-24T04:49:12.806Z,106.05
2023-05-24T04:50:12.887Z,100.21
2023-05-24T04:51:12.983Z,101.21
2023-05-24T04:52:13.074Z,83.21
2023-05-24T04:53:13.119Z,49.77
2023-05-24T04:54:13.197Z,34.76
2023-05-24T04:55:13.315Z,31.27
2023-05-24T04:56:13.402Z,31.51
2023-05-24T04:57:13.509Z,32.48
2023-05-24T04:58:13.541Z,29.86
2023-05-24T04:59:13.601Z,31.70
2023-05-24T05:00:13.719Z,36.99
2023-05-24T05:01:13.785Z,37.36
2023-05-24T05:02:14.074Z,31.71
2023-05-24T05:03:13.987Z,32.14
2023-05-24T05:04:14.176Z,39.12
2023-05-24T05:05:14.133Z,47.90
2023-05-24T05:06:14.200Z,62.82
2023-05-24T05:07:14.303Z,72.93
2023-05-24T05:08:14.371Z,57.01
2023-05-24T05:09:14.503Z,60.08
2023-05-24T05:10:14.655Z,65.73
2023-05-24T05:11:14.787Z,75.09
2023-05-24T05:12:14.917Z,57.14
2023-05-24T05:13:15.022Z,37.57
2023-05-24T05:14:15.177Z,39.06
2023-05-24T05:15:15.286Z,58.35
2023-05-24T05:16:15.675Z,87.44
2023-05-24T05:17:15.510Z,60.50
2023-05-24T05:18:15.616Z,44.50
2023-05-24T05:19:15.728Z,35.58
2023-05-24T05:20:15.915Z,39.15
2023-05-24T05:21:15.973Z,52.05
2023-05-24T05:22:16.104Z,66.79
2023-05-24T05:23:16.318Z,54.29
2023-05-24T05:24:16.328Z,46.41
2023-05-24T05:25:16.434Z,49.62
2023-05-24T05:26:16.552Z,59.48
2023-05-24T05:27:16.699Z,61.39
2023-05-24T05:28:16.837Z,51.78
2023-05-24T05:29:16.925Z,41.03
2023-05-24T05:30:17.057Z,45.09
2023-05-24T05:31:17.171Z,52.66
2023-05-24T05:32:17.386Z,52.04
2023-05-24T05:33:17.536Z,51.20
2023-05-24T05:34:17.579Z,53.08
2023-05-24T05:35:17.820Z,72.58
2023-05-24T05:36:17.849Z,104.08
2023-05-24T05:37:17.897Z,60.04
2023-05-24T05:38:18.040Z,47.74
2023-05-24T05:39:18.087Z,55.76
2023-05-24T05:40:24.313Z,57.14
2023-05-24T05:41:18.409Z,57.43
2023-05-24T05:42:18.296Z,58.42
2023-05-24T05:43:18.353Z,61.74
2023-05-24T05:44:18.427Z,69.72
2023-05-24T05:45:18.504Z,115.80
2023-05-24T05:46:18.599Z,173.03
2023-05-24T05:47:18.645Z,195.45
2023-05-24T05:48:18.843Z,186.57
2023-05-24T05:49:18.780Z,151.79
2023-05-24T05:50:18.847Z,89.17
2023-05-24T05:51:18.874Z,56.37
2023-05-24T05:52:19.163Z,47.64
2023-05-24T05:53:19.045Z,38.86
2023-05-24T05:54:19.105Z,33.39
2023-05-24T05:55:20.130Z,28.58
2023-05-24T05:56:19.515Z,21.30
2023-05-24T05:57:19.294Z,24.89
2023-05-24T05:58:19.371Z,24.46
2023-05-24T05:59:19.464Z,22.30
2023-05-24T06:00:20.481Z,20.13
2023-05-24T06:01:19.593Z,16.77
2023-05-24T06:02:19.720Z,19.69
2023-05-24T06:03:20.035Z,17.91
2023-05-24T06:04:20.412Z,17.47
2023-05-24T06:05:20.076Z,19.56
2023-05-24T06:06:20.183Z,20.07
2023-05-24T06:07:20.338Z,18.84
2023-05-24T06:08:20.490Z,17.95
2023-05-24T06:09:21.519Z,21.20
2023-05-24T06:10:20.751Z,21.15
2023-05-24T06:11:20.927Z,21.31
2023-05-24T06:12:21.558Z,21.65
2023-05-24T06:13:21.575Z,25.07
2023-05-24T06:14:21.262Z,26.16
2023-05-24T06:15:24.128Z,18.55
2023-05-24T06:16:21.457Z,16.70
2023-05-24T06:17:21.414Z,10.17
2023-05-24T06:18:21.510Z,11.57
2023-05-24T06:19:21.569Z,16.20
2023-05-24T06:20:21.736Z,16.44
2023-05-24T06:21:21.775Z,20.50
2023-05-24T06:22:22.854Z,23.43
2023-05-24T06:23:22.649Z,25.71
2023-05-24T06:24:26.594Z,13.04
2023-05-24T06:25:22.118Z,12.80
2023-05-24T06:26:22.176Z,13.23
2023-05-24T06:27:22.288Z,11.22
2023-05-24T06:28:22.468Z,9.97
2023-05-24T06:29:22.543Z,8.86
2023-05-24T06:30:22.571Z,7.09
2023-05-24T06:31:23.070Z,8.24
2023-05-24T06:32:22.701Z,6.84
2023-05-24T06:33:22.755Z,5.88
2023-05-24T06:34:22.837Z,5.66
2023-05-24T06:35:22.891Z,5.64
2023-05-24T06:36:23.064Z,5.85
2023-05-24T06:37:23.416Z,5.02
2023-05-24T06:38:23.197Z,3.90
2023-05-24T06:39:23.206Z,4.46
2023-05-24T06:40:23.288Z,4.64
2023-05-24T06:41:23.378Z,4.00
2023-05-24T06:42:24.160Z,2.67
2023-05-24T06:43:23.591Z,2.03
2023-05-24T06:44:25.262Z,1.85
2023-05-24T06:45:23.826Z,2.03
2023-05-24T06:46:24.067Z,2.55
2023-05-24T06:47:24.243Z,2.53
2023-05-24T06:48:24.353Z,4.35
2023-05-24T06:49:24.299Z,4.70
2023-05-24T06:50:24.440Z,3.40
2023-05-24T06:51:24.485Z,2.05
2023-05-24T06:52:24.610Z,2.24
2023-05-24T06:53:24.734Z,2.22
2023-05-24T06:54:24.795Z,2.23
2023-05-24T06:55:24.922Z,2.18
2023-05-24T06:56:24.941Z,2.38
2023-05-24T06:57:25.009Z,2.76
2023-05-24T06:58:25.089Z,2.61
2023-05-24T06:59:25.151Z,2.36
2023-05-24T07:00:25.237Z,3.14
2023-05-24T07:01:26.121Z,4.01
2023-05-24T07:02:25.425Z,4.33
2023-05-24T07:03:25.486Z,2.98
2023-05-24T07:04:25.620Z,2.77
2023-05-24T07:05:25.624Z,2.74
2023-05-24T07:06:25.745Z,3.53
2023-05-24T07:07:25.874Z,3.16
2023-05-24T07:08:25.926Z,3.17
2023-05-24T07:09:25.997Z,3.22
2023-05-24T07:10:26.132Z,3.18
2023-05-24T07:11:26.217Z,3.68
2023-05-24T07:12:26.380Z,3.57
2023-05-24T07:13:26.322Z,2.81
2023-05-24T07:14:26.392Z,2.70
2023-05-24T07:15:26.476Z,2.24
2023-05-24T07:16:26.731Z,1.47
2023-05-24T07:17:26.631Z,1.23
2023-05-24T07:18:26.701Z,1.25
2023-05-24T07:19:27.720Z,1.39
2023-05-24T07:20:27.014Z,1.56
2023-05-24T07:21:26.940Z,1.58
2023-05-24T07:22:27.154Z,2.43
2023-05-24T07:23:27.160Z,1.56
2023-05-24T07:24:27.285Z,1.15
2023-05-24T07:25:27.321Z,0.88
2023-05-24T07:26:27.492Z,1.10
2023-05-24T07:27:27.551Z,1.30
2023-05-24T07:28:27.647Z,1.25
2023-05-24T07:29:27.762Z,0.89
2023-05-24T07:31:27.977Z,0.97
2023-05-24T07:32:28.165Z,0.89
2023-05-24T07:33:28.057Z,1.00
2023-05-24T07:34:28.084Z,0.75
2023-05-24T07:35:28.122Z,0.89
2023-05-24T07:36:28.413Z,0.98
2023-05-24T07:37:28.257Z,0.70
2023-05-24T07:38:28.404Z,0.57
2023-05-24T07:39:28.348Z,0.77
2023-05-24T07:40:28.474Z,1.29
2023-05-24T07:41:29.052Z,1.01
2023-05-24T07:42:28.523Z,0.62
2023-05-24T07:43:28.821Z,0.78
2023-05-24T07:44:29.570Z,0.73
2023-05-24T07:45:28.663Z,0.89
2023-05-24T07:46:28.804Z,0.76
2023-05-24T07:47:28.774Z,1.06
2023-05-24T07:48:28.853Z,0.59
2023-05-24T07:49:28.868Z,0.45
2023-05-24T07:50:44.279Z,0.50
2023-05-24T07:51:29.122Z,0.51
2023-05-24T07:52:32.078Z,0.52
2023-05-24T07:53:29.202Z,0.52
2023-05-24T07:54:29.192Z,0.61
2023-05-24T07:55:29.250Z,0.54
2023-05-24T07:56:29.313Z,0.64
2023-05-24T07:57:29.363Z,0.88
2023-05-24T07:58:30.096Z,1.42
2023-05-24T07:59:29.433Z,2.51
2023-05-24T08:00:29.517Z,2.34
2023-05-24T08:01:29.564Z,2.01
2023-05-24T08:02:29.638Z,2.17
2023-05-24T08:03:29.747Z,2.53
2023-05-24T08:04:29.605Z,2.06
2023-05-24T08:05:29.701Z,1.72
2023-05-24T08:06:29.774Z,1.70
2023-05-24T08:07:29.823Z,1.34
2023-05-24T08:08:29.849Z,1.89
2023-05-24T08:09:29.980Z,1.76
2023-05-24T08:10:30.059Z,1.71
2023-05-24T08:11:30.155Z,1.37
2023-05-24T08:12:30.239Z,2.31
2023-05-24T08:13:30.320Z,2.59
2023-05-24T08:14:30.390Z,1.98
2023-05-24T08:15:30.584Z,2.17
2023-05-24T08:16:30.556Z,1.75
2023-05-24T08:17:30.586Z,1.47
2023-05-24T08:18:31.653Z,1.91
2023-05-24T08:19:30.661Z,1.80
2023-05-24T08:20:31.602Z,1.57
2023-05-24T08:21:31.592Z,1.62
2023-05-24T08:22:30.851Z,1.50
2023-05-24T08:23:30.940Z,1.28
2023-05-24T08:24:30.997Z,1.59
2023-05-24T08:25:31.047Z,1.71
2023-05-24T08:26:31.342Z,1.73
2023-05-24T08:27:31.169Z,2.37
2023-05-24T08:28:31.239Z,2.33
2023-05-24T08:29:31.293Z,2.34
2023-05-24T08:30:31.364Z,2.36
2023-05-24T08:31:31.491Z,2.91
2023-05-24T08:32:31.517Z,3.57
2023-05-24T08:33:32.089Z,5.56
2023-05-24T08:34:31.589Z,5.80
2023-05-24T08:35:31.701Z,4.95
2023-05-24T08:36:31.985Z,4.68
2023-05-24T08:37:31.852Z,5.03
2023-05-24T08:38:31.915Z,4.89
2023-05-24T08:39:32.028Z,3.91
2023-05-24T08:40:32.117Z,3.32
2023-05-24T08:41:32.277Z,3.18
2023-05-24T08:42:35.169Z,4.55
2023-05-24T08:43:33.036Z,4.19
2023-05-24T08:44:32.582Z,4.25
2023-05-24T08:45:32.661Z,5.05
2023-05-24T08:46:33.156Z,6.53
2023-05-24T08:47:32.962Z,5.49
2023-05-24T08:48:33.626Z,6.60
2023-05-24T08:49:33.914Z,11.02
2023-05-24T08:50:33.062Z,9.24
2023-05-24T08:51:33.138Z,7.41
2023-05-24T08:52:34.639Z,7.00
2023-05-24T08:53:33.273Z,6.96
2023-05-24T08:54:33.349Z,5.40
2023-05-24T08:55:33.624Z,4.85
2023-05-24T08:56:33.525Z,4.06
2023-05-24T08:57:33.615Z,3.16
2023-05-24T08:58:33.673Z,3.63
2023-05-24T08:59:33.729Z,3.64
2023-05-24T09:00:33.835Z,3.79
2023-05-24T09:01:34.726Z,4.17
2023-05-24T09:02:34.680Z,4.80
2023-05-24T09:03:34.124Z,5.57
2023-05-24T09:04:34.187Z,6.64
2023-05-24T09:05:34.168Z,8.21
2023-05-24T09:06:34.609Z,7.71
2023-05-24T09:07:34.339Z,5.80
2023-05-24T09:08:34.425Z,4.76
2023-05-24T09:09:34.491Z,5.96
2023-05-24T09:10:49.488Z,5.97
2023-05-24T09:11:38.737Z,5.97
2023-05-24T09:12:38.249Z,6.00
2023-05-24T09:13:35.744Z,6.03
2023-05-24T09:14:35.066Z,6.07
2023-05-24T09:15:35.140Z,6.64
2023-05-24T09:16:35.628Z,8.11
2023-05-24T09:17:35.235Z,10.71
2023-05-24T09:18:35.375Z,14.82
2023-05-24T09:19:35.335Z,15.14
2023-05-24T09:20:35.515Z,15.58
2023-05-24T09:21:35.562Z,16.54
2023-05-24T09:22:37.417Z,17.05
2023-05-24T09:23:35.701Z,17.12
2023-05-24T09:24:35.791Z,17.08
2023-05-24T09:25:35.884Z,16.71
2023-05-24T09:26:35.998Z,13.62
2023-05-24T09:27:36.081Z,11.56
2023-05-24T09:28:36.185Z,11.75
2023-05-24T09:29:36.278Z,17.53
2023-05-24T09:30:36.397Z,14.49
2023-05-24T09:31:36.518Z,15.63
2023-05-24T09:32:36.576Z,18.36
2023-05-24T09:33:36.767Z,19.90
2023-05-24T09:34:36.764Z,19.19
2023-05-24T09:35:36.895Z,19.15
2023-05-24T09:36:37.117Z,28.87
2023-05-24T09:37:37.053Z,26.39
2023-05-24T09:38:37.233Z,28.69
2023-05-24T09:39:37.247Z,37.02
2023-05-24T09:40:37.370Z,39.69
2023-05-24T09:41:37.456Z,51.95
2023-05-24T09:42:38.083Z,57.56
2023-05-24T09:43:37.644Z,73.33
2023-05-24T09:44:37.700Z,53.64
2023-05-24T09:45:37.821Z,62.42
2023-05-24T09:46:37.920Z,55.11
2023-05-24T09:47:37.998Z,41.77
2023-05-24T09:48:38.153Z,49.09
2023-05-24T09:49:38.153Z,37.94
2023-05-24T09:50:38.373Z,40.00
2023-05-24T09:51:38.659Z,41.47
2023-05-24T09:52:38.468Z,39.91
2023-05-24T09:53:38.544Z,51.28
2023-05-24T09:54:38.708Z,49.61
2023-05-24T09:55:38.745Z,57.32
2023-05-24T09:56:38.852Z,50.31
2023-05-24T09:57:38.928Z,54.50
2023-05-24T09:58:39.040Z,72.23
2023-05-24T09:59:39.131Z,88.96
2023-05-24T10:00:40.339Z,142.41
2023-05-24T10:01:39.331Z,95.76
2023-05-24T10:02:51.513Z,86.56
2023-05-24T10:03:40.578Z,86.86
2023-05-24T10:04:39.711Z,68.15
2023-05-24T10:05:39.780Z,44.16
2023-05-24T10:06:40.172Z,48.94
2023-05-24T10:07:40.615Z,48.48
2023-05-24T10:08:39.898Z,55.18
2023-05-24T10:09:40.030Z,63.35
2023-05-24T10:10:40.105Z,100.67
2023-05-24T10:11:40.711Z,116.69
2023-05-24T10:12:41.101Z,143.73
2023-05-24T10:13:40.349Z,125.40
2023-05-24T10:14:40.465Z,96.51
2023-05-24T10:15:40.581Z,101.46
2023-05-24T10:16:40.771Z,84.81
2023-05-24T10:17:40.879Z,101.11
2023-05-24T10:18:41.009Z,106.09
2023-05-24T10:19:41.184Z,126.63
2023-05-24T10:20:42.290Z,111.65
2023-05-24T10:21:41.658Z,92.78
2023-05-24T10:22:41.566Z,77.55
2023-05-24T10:23:41.800Z,71.00
2023-05-24T10:24:41.830Z,94.90
2023-05-24T10:25:42.009Z,124.98
2023-05-24T10:26:42.144Z,78.72
2023-05-24T10:27:42.274Z,72.19
2023-05-24T10:28:42.418Z,69.09
2023-05-24T10:29:42.566Z,56.49
2023-05-24T10:30:43.252Z,56.82
2023-05-24T10:31:42.906Z,47.84
2023-05-24T10:32:43.108Z,49.42
2023-05-24T10:33:43.072Z,49.63
2023-05-24T10:34:43.210Z,50.37
2023-05-24T10:35:43.291Z,49.54
2023-05-24T10:36:43.599Z,55.71
2023-05-24T10:37:43.464Z,85.76
2023-05-24T10:38:43.518Z,181.88
2023-05-24T10:39:43.606Z,230.31
2023-05-24T10:40:43.672Z,117.53
2023-05-24T10:41:43.752Z,80.19
2023-05-24T10:42:43.822Z,80.23
2023-05-24T10:43:45.119Z,71.47
2023-05-24T10:44:45.009Z,69.66
2023-05-24T10:45:44.145Z,54.93
2023-05-24T10:46:44.100Z,51.09
2023-05-24T10:47:44.173Z,35.31
2023-05-24T10:48:44.222Z,34.52
2023-05-24T10:49:44.298Z,39.15
2023-05-24T10:50:44.818Z,45.44
2023-05-24T10:51:45.172Z,46.02
2023-05-24T10:52:44.506Z,52.45
2023-05-24T10:53:44.554Z,68.34
2023-05-24T10:54:56.056Z,90.35
2023-05-24T10:55:45.739Z,47.56
2023-05-24T10:56:44.827Z,51.89
2023-05-24T10:57:44.877Z,49.85
2023-05-24T10:58:44.989Z,53.17
2023-05-24T10:59:45.072Z,49.98
2023-05-24T11:00:45.127Z,56.12
2023-05-24T11:01:45.338Z,405.81
2023-05-24T11:02:45.322Z,1000.00
2023-05-24T11:03:45.365Z,1000.00
2023-05-24T11:04:45.476Z,1000.00
2023-05-24T11:05:46.989Z,1000.00
2023-05-24T11:06:46.633Z,539.56
2023-05-24T11:07:46.637Z,433.47
2023-05-24T11:08:45.926Z,394.56
2023-05-24T11:09:46.094Z,413.92
2023-05-24T11:10:47.132Z,433.84
2023-05-24T11:11:46.201Z,644.07
2023-05-24T11:12:46.382Z,451.94
2023-05-24T11:13:46.469Z,360.56
2023-05-24T11:14:46.546Z,422.10
2023-05-24T11:15:46.718Z,332.00
2023-05-24T11:16:46.912Z,288.83
2023-05-24T11:17:46.910Z,228.08
2023-05-24T11:18:46.929Z,228.90
2023-05-24T11:19:47.681Z,240.96
2023-05-24T11:20:47.293Z,280.14
2023-05-24T11:21:47.302Z,323.07
2023-05-24T11:22:47.235Z,223.53
2023-05-24T11:23:47.557Z,168.81
2023-05-24T11:24:47.399Z,225.51
2023-05-24T11:25:47.453Z,248.86
2023-05-24T11:26:47.543Z,901.47
2023-05-24T11:27:47.570Z,997.78
2023-05-24T11:28:47.668Z,466.29
2023-05-24T11:29:47.910Z,354.32
2023-05-24T11:30:47.795Z,370.26
2023-05-24T11:31:48.036Z,370.55
2023-05-24T11:32:48.070Z,374.09
2023-05-24T11:33:48.013Z,433.47
2023-05-24T11:34:48.044Z,562.28
2023-05-24T11:35:48.104Z,624.98
2023-05-24T11:36:48.213Z,618.25
2023-05-24T11:37:48.239Z,1000.00
2023-05-24T11:38:48.257Z,814.04
2023-05-24T11:39:48.362Z,1000.00
2023-05-24T11:40:48.451Z,1000.00
2023-05-24T11:41:48.520Z,1000.00
2023-05-24T11:42:48.622Z,1000.00
2023-05-24T11:43:48.642Z,1000.00
2023-05-24T11:44:48.740Z,1000.00
2023-05-24T11:45:48.896Z,1000.00
2023-05-24T11:46:48.899Z,1000.00
2023-05-24T11:47:49.068Z,808.23
2023-05-24T11:48:49.062Z,596.71
2023-05-24T11:49:49.170Z,404.05
2023-05-24T11:50:50.453Z,418.17
2023-05-24T11:51:49.348Z,402.20
2023-05-24T11:52:49.388Z,329.48
2023-05-24T11:53:50.384Z,291.43
2023-05-24T11:54:50.146Z,292.74
2023-05-24T11:55:50.211Z,340.74
2023-05-24T11:56:49.707Z,363.35
2023-05-24T11:57:49.786Z,280.11
2023-05-24T11:58:49.865Z,160.03
2023-05-24T11:59:50.050Z,118.85
2023-05-24T12:00:50.147Z,92.04
2023-05-24T12:01:50.215Z,101.60
2023-05-24T12:02:50.422Z,108.60
2023-05-24T12:03:50.647Z,123.10
2023-05-24T12:04:51.345Z,126.51
2023-05-24T12:05:50.743Z,149.54
2023-05-24T12:06:50.832Z,154.84
2023-05-24T12:07:50.967Z,148.15
2023-05-24T12:08:51.059Z,136.08
2023-05-24T12:09:51.185Z,159.37
2023-05-24T12:10:51.299Z,221.88
2023-05-24T12:11:51.424Z,223.23
2023-05-24T12:12:51.505Z,228.63
2023-05-24T12:13:51.541Z,190.08
2023-05-24T12:14:51.632Z,158.30
2023-05-24T12:15:54.837Z,226.64
2023-05-24T12:16:51.815Z,213.24
2023-05-24T12:17:51.925Z,221.92
2023-05-24T12:19:03.782Z,144.57
2023-05-24T12:19:53.096Z,180.44
2023-05-24T12:20:52.155Z,167.26
2023-05-24T12:21:54.169Z,102.57
2023-05-24T12:22:53.161Z,96.11
2023-05-24T12:23:52.369Z,122.54
2023-05-24T12:24:52.552Z,56.20
2023-05-24T12:25:52.815Z,46.44
2023-05-24T12:26:52.726Z,48.55
2023-05-24T12:27:54.466Z,45.01
2023-05-24T12:28:52.917Z,36.80
2023-05-24T12:29:53.032Z,40.96
2023-05-24T12:30:53.267Z,45.75
2023-05-24T12:31:53.379Z,44.31
2023-05-24T12:32:53.362Z,30.30
2023-05-24T12:33:54.591Z,28.49
2023-05-24T12:34:53.560Z,22.98
2023-05-24T12:35:53.685Z,17.21
2023-05-24T12:36:53.826Z,17.98
2023-05-24T12:37:53.937Z,27.47
2023-05-24T12:38:54.042Z,32.62
2023-05-24T12:39:54.943Z,31.29
2023-05-24T12:41:08.127Z,17.22
2023-05-24T12:41:55.647Z,15.64
2023-05-24T12:42:54.502Z,15.59
2023-05-24T12:43:54.561Z,13.84
2023-05-24T12:44:54.644Z,14.23
2023-05-24T12:45:54.774Z,13.69